Latest Coastal Weather Observations for Geraldton Airport

IDW60701

Issued at 5:25 pm WST Tuesday 22 July 2014 (issued every 10 minutes, with the page automatically refreshed every 10 minutes)

About coastal observations | Map of coastal stations | Coastal observations for WA | Marine services | Other Formats
Station Details ID: 008315 Name: GERALDTON AIRPORT Lat: -28.80 Lon: 114.70 Height: 29.7 m
Data from the previous 72 hours. | See also: Recent months at Geraldton Airport
Date/Time
WST
Temp

°C
Wind Pressure Rain
since 9am
mm
Weather Cloud Vis
km
Sea
Height
m
Swell
Dir
 
Speed
knots
Gust
knots
hPa Trend Height
m
Period
s
Dir
22/05:00pm 15.4 SSW 11 17 1020.9 - 0.0 - Mostly clear 10 - - - -
22/04:30pm 15.7 SSW 9 12 1020.7 - 0.0 - Mostly clear 10 - - - -
22/04:00pm 15.8 S 10 15 1020.6 - 0.0 - Mostly clear 10 - - - -
22/03:30pm 17.3 SSW 9 13 1020.3 - 0.0 - Mostly clear 10 - - - -
22/03:00pm 15.6 SSW 11 15 1020.3 R 0.0 Showers Mostly cloudy 25 - - - -
22/02:30pm 17.6 SW 15 21 1019.9 - 0.0 - Mostly clear 10 - - - -
22/02:00pm 17.4 SW 16 19 1019.8 - 0.0 - Partly cloudy 10 - - - -
22/01:30pm 16.7 SSW 14 18 1019.7 - 0.0 - Partly cloudy 10 - - - -
22/01:00pm 16.1 SW 9 13 1019.9 - 0.0 - Mostly clear 10 - - - -
22/12:30pm 17.2 SW 12 17 1020.1 - 0.0 - Partly cloudy 10 - - - -
22/12:00pm 17.3 SW 15 22 1020.4 R 0.0 Distant precip. Mostly cloudy 25 - - - -
22/11:23am 17.1 SSW 15 25 1020.3 - 0.0 - Partly cloudy 10 - - - -
22/11:00am 17.2 SW 16 21 1020.4 - 0.0 - Partly cloudy 10 - - - -
22/10:30am 16.6 SW 15 20 1020.3 - 0.0 - Partly cloudy 10 - - - -
22/10:00am 16.3 SW 13 16 1020.3 - 0.0 - Mostly cloudy 10 - - - -
22/09:30am 15.3 SSW 16 23 1019.9 - 0.0 - Partly cloudy 10 - - - -
22/09:00am 14.5 SW 13 - 1019.6 R 2.0 Recent precip. Mostly cloudy 25 - - - -
22/08:57am 14.5 SW 16 26 1019.4 - 2.2 - Mostly cloudy 10 - - - -
22/08:48am 15.4 SW 21 26 1019.3 - 2.0 Showers Mostly cloudy 9 - - - -
22/08:30am 14.3 SW 8 14 1019.2 - 2.0 - Partly cloudy 10 - - - -
22/08:00am 14.1 SSW 15 21 1018.9 - 2.0 - Mostly cloudy 6 - - - -
22/07:30am 14.4 SW 14 21 1018.3 - 2.0 - Partly cloudy 10 - - - -
22/07:00am 13.8 SW 13 17 1018.0 - 2.0 - Partly cloudy 10 - - - -
22/06:45am 13.6 SW 14 18 1017.8 - 2.0 - Mostly clear 9 - - - -
22/06:25am 13.6 WSW 14 21 1017.6 - 1.6 Showers Mostly clear 6 - - - -
22/06:00am 14.6 WSW 14 21 1017.1 R 1.6 Recent precip. Mostly cloudy 30 - - - -
22/05:30am 14.9 WSW 14 21 1016.9 - 1.6 - - 10 - - - -
22/05:04am 14.7 WSW 15 26 1016.8 - 1.6 - - 10 - - - -
22/05:00am 14.8 WSW 14 18 1016.7 - 1.6 - - 10 - - - -
22/04:30am 14.2 WSW 15 22 1016.6 - 1.6 - - 10 - - - -
22/04:24am 14.4 WSW 15 21 1016.6 - 1.6 - - 10 - - - -
22/04:19am 14.6 W 23 28 1016.3 - 1.6 - - 10 - - - -
22/04:00am 14.0 W 11 16 1016.3 - 1.6 - - 10 - - - -
22/03:30am 14.9 WSW 14 18 1016.2 - 1.6 - - 10 - - - -
22/03:00am 14.4 W 12 15 1016.0 - 1.6 - - 10 - - - -
22/02:30am 14.7 W 13 18 1016.0 - 1.6 - - 10 - - - -
22/02:00am 14.3 W 11 15 1016.2 - 1.6 - - 10 - - - -
22/01:30am 14.0 W 9 12 1016.2 - 1.6 - - 10 - - - -
22/01:00am 12.9 WSW 7 9 1016.2 - 1.6 - - 10 - - - -
22/12:31am 13.3 SW 6 9 1016.1 - 1.6 - - 10 - - - -
22/12:30am 13.4 SW 7 11 1016.1 - 1.6 - - 10 - - - -
22/12:03am 14.6 WSW 9 17 1016.3 - 1.2 - - 8 - - - -
22/12:00am 14.7 W 9 11 1016.1 - 1.0 - - 10 - - - -
 
Date/Time
WST
Temp

°C
Wind Pressure Rain
since 9am
mm
Weather Cloud Vis
km
Sea
Height
m
Swell
Dir
 
Speed
knots
Gust
knots
hPa Trend Height
m
Period
s
Dir
21/11:30pm 15.2 W 11 14 1016.3 - 1.0 - - 10 - - - -
21/11:00pm 15.2 WSW 9 11 1016.5 - 1.0 - - 10 - - - -
21/10:30pm 14.8 WSW 9 12 1016.5 - 1.0 - - 10 - - - -
21/10:00pm 15.3 WSW 9 12 1016.3 - 1.0 - - 10 - - - -
21/09:30pm 15.4 WSW 11 15 1016.2 - 1.0 - - 10 - - - -
21/09:00pm 15.1 W 12 17 1016.0 F 1.0 Thunderstorm Mostly cloudy 9 - - - -
21/08:38pm 14.0 N 2 5 1016.0 - 0.8 Thunder Mostly clear 5 - - - -
21/08:30pm 14.0 WSW 5 11 1016.1 - 0.6 Thunder Mostly clear 8 - - - -
21/08:12pm 13.6 NNE 11 15 1015.8 - 0.6 Thunderstorm Mostly clear 10 - - - -
21/08:00pm 13.5 NNE 9 11 1015.8 - 0.6 Showers Partly cloudy 10 - - - -
21/07:30pm 13.7 NNE 10 11 1015.9 - 0.6 - Mostly clear 10 - - - -
21/07:00pm 15.2 W 9 13 1015.9 - 0.6 Showers Mostly clear 10 - - - -
21/06:30pm 13.8 N 6 7 1015.8 - 0.6 - Mostly clear 10 - - - -
21/06:00pm 14.5 WNW 5 7 1015.7 F 0.6 Distant precip. Mostly cloudy 20 - - - -
21/05:30pm 15.3 WNW 15 24 1015.7 - 0.6 - Mostly clear 10 - - - -
21/05:00pm 15.5 WNW 15 19 1015.6 - 0.6 - Mostly clear 10 - - - -
21/04:50pm 15.4 W 16 22 1015.5 - 0.6 Showers Mostly clear 7 - - - -
21/04:39pm 15.4 W 18 24 1015.4 - 0.6 Showers Mostly clear 4 - - - -
21/04:30pm 15.7 W 13 19 1015.5 - 0.6 Showers Mostly clear 2 - - - -
21/04:14pm 15.3 NNW 7 11 1015.6 - 0.6 Showers Mostly clear 4 - - - -
21/04:00pm 15.2 WNW 14 20 1015.7 - 0.4 Showers Mostly clear 2 - - - -
21/03:55pm 15.6 WNW 15 23 1015.5 - 0.0 Showers Mostly clear 2 - - - -
21/03:30pm 18.4 NW 13 19 1015.3 - 0.0 - Mostly clear 10 - - - -
21/03:00pm 18.3 NW 14 18 1015.4 F 0.0 Distant precip. Partly cloudy 30 - - - -
21/02:30pm 19.2 NNW 11 15 1015.6 - 0.0 - Mostly clear 10 - - - -
21/02:00pm 19.6 NNW 11 16 1016.0 - 0.0 - Mostly clear 10 - - - -
21/01:30pm 19.3 NW 11 16 1016.5 - 0.0 - Mostly clear 10 - - - -
21/01:00pm 18.0 NNW 10 15 1017.0 - 0.0 - Partly cloudy 10 - - - -
21/12:30pm 18.6 N 7 11 1017.5 - 0.0 - Partly cloudy 10 - - - -
21/12:00pm 16.8 N 9 11 1018.2 F 0.0 Distant precip. Mostly cloudy 30 - - - -
21/11:30am 15.1 N 11 14 1018.6 - 0.0 - Mostly clear 8 - - - -
21/11:00am 15.7 W 9 12 1019.0 - 0.0 Drizzle Mostly clear 5 - - - -
21/10:30am 16.1 NW 10 13 1019.4 - 0.0 Showers Mostly clear 7 - - - -
21/10:00am 15.2 N 6 8 1019.6 - 0.0 - Mostly clear 10 - - - -
21/09:30am 14.4 N 9 13 1019.6 - 0.0 - Mostly clear 10 - - - -
21/09:00am 12.8 NNE 11 14 1019.5 F 2.8 Distant precip. Mostly cloudy 30 - - - -
21/08:30am 11.6 NNE 12 14 1019.0 - 2.8 - Partly cloudy 10 - - - -
21/08:00am 11.2 NNE 11 13 1019.1 - 2.8 - Mostly clear 10 - - - -
21/07:30am 10.1 NNE 10 12 1018.8 - 2.8 - Mostly clear 10 - - - -
21/07:00am 10.1 NNE 10 12 1018.6 - 2.8 - Mostly clear 10 - - - -
21/06:30am 10.0 NNE 10 12 1018.3 - 2.8 - Mostly clear 10 - - - -
21/06:00am 10.5 NNE 9 11 1018.5 F 2.8 Fine Partly cloudy 35 - - - -
21/05:30am 10.9 N 9 10 1018.4 - 2.8 - - 10 - - - -
21/05:00am 10.4 NNE 8 10 1018.5 - 2.8 - - 10 - - - -
21/04:30am 11.0 NNE 8 10 1018.5 - 2.8 - - 10 - - - -
21/04:00am 11.5 NNE 7 8 1018.7 - 2.8 - - 10 - - - -
21/03:30am 11.5 NNE 8 9 1018.8 - 2.8 - - 10 - - - -
21/03:00am 11.1 NE 6 7 1018.9 - 2.8 - - 10 - - - -
21/02:30am 12.7 N 3 4 1018.7 - 2.8 - - 10 - - - -
21/02:00am 13.1 N 5 7 1018.6 - 2.8 - - 10 - - - -
21/01:30am 13.3 NNW 4 6 1018.8 - 2.8 - - 10 - - - -
21/01:00am 13.2 N 5 7 1018.8 - 2.8 - - 10 - - - -
21/12:30am 13.0 N 6 7 1019.0 - 2.8 - - 10 - - - -
21/12:00am 12.7 N 6 7 1019.3 - 2.8 - - 10 - - - -
 
Date/Time
WST
Temp

°C
Wind Pressure Rain
since 9am
mm
Weather Cloud Vis
km
Sea
Height
m
Swell
Dir
 
Speed
knots
Gust
knots
hPa Trend Height
m
Period
s
Dir
20/11:30pm 11.4 N 4 5 1019.3 - 2.8 - - 10 - - - -
20/11:00pm 12.3 N 6 7 1019.5 - 2.8 - - 10 - - - -
20/10:30pm 13.7 WNW 4 5 1019.5 - 2.8 - - 10 - - - -
20/10:00pm 14.4 WSW 3 4 1019.5 - 2.8 - - 10 - - - -
20/09:30pm 14.9 W 5 5 1019.5 - 2.8 - - 10 - - - -
20/09:00pm 15.0 WSW 6 7 1019.5 R 2.8 Fine Mostly cloudy 25 - - - -
20/08:30pm 15.8 WSW 9 13 1019.4 - 2.8 - Mostly clear 10 - - - -
20/08:00pm 15.6 SW 9 11 1019.1 - 2.8 - Mostly clear 10 - - - -
20/07:30pm 16.0 SW 10 13 1019.0 - 2.8 - Mostly clear 10 - - - -
20/07:00pm 16.2 SW 11 14 1018.8 - 2.8 - Mostly clear 10 - - - -
20/06:30pm 15.9 SW 8 11 1018.4 - 2.8 - Partly cloudy 10 - - - -
20/06:00pm 14.9 SW 7 9 1018.2 F 2.8 Fine Partly cloudy 25 - - - -
20/05:30pm 15.5 SW 10 13 1017.9 - 2.8 - Mostly clear 10 - - - -
20/05:00pm 16.2 SW 12 19 1017.9 - 2.8 - Mostly clear 10 - - - -
20/04:30pm 17.0 WSW 13 18 1017.7 - 2.8 - Mostly clear 10 - - - -
20/04:00pm 16.0 SW 14 18 1017.6 - 2.8 - Mostly clear 10 - - - -
20/03:48pm 15.4 SW 17 23 1017.6 - 2.8 Showers Mostly clear 5 - - - -
20/03:30pm 17.5 SW 15 20 1017.5 - 2.8 - Mostly clear 10 - - - -
20/03:03pm 17.2 SW 17 22 1017.5 - 2.8 - Mostly clear 10 - - - -
20/03:00pm 17.2 SW 17 - 1017.4 R 3.0 Distant precip. Partly cloudy 20 - - - -
20/02:30pm 17.1 SW 15 22 1017.5 - 2.8 - Partly cloudy 10 - - - -
20/02:00pm 17.5 WSW 17 22 1017.3 - 2.8 - Mostly clear 10 - - - -
20/01:30pm 17.5 W 17 23 1017.4 - 2.8 Showers Mostly clear 4 - - - -
20/01:00pm 16.6 SW 14 21 1017.7 - 2.8 Showers Mostly clear 4 - - - -
20/12:30pm 15.5 W 13 17 1017.9 - 2.6 - Mostly clear 6 - - - -
20/12:00pm 15.2 SW 13 19 1018.3 R 0.4 Showers Mostly cloudy 8 - - - -
20/11:46am 15.7 SW 12 17 1018.2 - 0.4 - Mostly clear 4 - - - -
20/11:30am 15.7 SW 16 21 1018.1 - 0.4 - Partly cloudy 6 - - - -
20/11:00am 16.2 W 16 20 1018.3 - 0.2 - Partly cloudy 10 - - - -
20/10:30am 18.2 W 15 19 1018.4 - 0.2 Showers Partly cloudy 5 - - - -
20/10:00am 16.5 WSW 16 21 1018.4 - 0.2 - Partly cloudy 10 - - - -
20/09:30am 15.6 SW 17 24 1018.2 - 0.2 - Partly cloudy 8 - - - -
20/09:00am 15.7 WSW 15 22 1017.8 R 10.0 Haze Mostly cloudy 20 - - - -
20/08:30am 15.2 W 14 19 1017.5 - 10.0 - Partly cloudy 9 - - - -
20/08:00am 14.5 W 14 21 1017.2 - 10.0 - Partly cloudy 8 - - - -
20/07:50am 15.1 W 14 20 1017.2 - 9.8 Showers Mostly cloudy 4 - - - -
20/07:30am 14.8 W 16 23 1017.0 - 9.6 - Partly cloudy 10 - - - -
20/07:12am 15.3 WSW 21 26 1016.8 - 9.6 - Partly cloudy 9 - - - -
20/07:00am 15.5 W 17 25 1016.5 - 9.6 - Mostly cloudy 10 - - - -
20/06:51am 15.7 W 15 25 1016.4 - 9.6 Showers Mostly cloudy 10 - - - -
20/06:30am 15.3 W 16 24 1016.3 - 9.6 - Partly cloudy 10 - - - -
20/06:00am 15.6 W 17 24 1016.1 R 9.6 Distant precip. Mostly cloudy 30 - - - -
20/05:30am 15.2 W 16 22 1016.1 - 9.6 - - 10 - - - -
20/05:00am 14.8 W 15 22 1015.9 - 9.6 - - 10 - - - -
20/04:30am 14.5 W 17 24 1016.0 - 9.6 - - 10 - - - -
20/04:00am 14.5 W 15 21 1016.2 - 9.6 - - 10 - - - -
20/03:30am 15.1 W 19 25 1016.1 - 9.6 - - 10 - - - -
20/03:00am 14.4 W 15 22 1016.1 - 9.6 - - 10 - - - -
20/02:37am 13.3 W 10 19 1016.1 - 9.6 - - 10 - - - -
20/02:30am 13.3 W 12 19 1016.2 - 9.6 - - 10 - - - -
20/02:04am 13.4 WSW 13 19 1016.0 - 9.2 - - 8 - - - -
20/02:00am 12.2 W 6 8 1016.1 - 8.8 - - 10 - - - -
20/01:30am 12.8 WSW 10 13 1016.0 - 8.8 - - 10 - - - -
20/01:29am 12.9 WSW 10 14 1016.0 - 8.8 - - 10 - - - -
20/01:10am 13.4 WSW 13 23 1016.2 - 8.8 - - 7 - - - -
20/01:00am 13.3 WSW 11 15 1016.2 - 8.6 - - 8 - - - -
20/12:45am 12.7 WSW 15 25 1016.3 - 8.0 - - 2 - - - -
20/12:39am 12.9 WSW 16 25 1016.4 - 7.4 - - 5 - - - -
20/12:38am 12.9 WSW 15 25 1016.4 - 7.2 - - 10 - - - -
20/12:33am 13.4 WSW 12 21 1016.2 - 6.8 - - 10 - - - -
20/12:30am 12.9 WSW 9 11 1016.3 - 6.8 - - 10 - - - -
20/12:13am 13.4 WSW 14 32 1016.4 - 6.4 - - 6 - - - -
20/12:00am 13.8 WSW 18 28 1016.4 - 5.8 - - 10 - - - -
 
Date/Time
WST
Temp

°C
Wind Pressure Rain
since 9am
mm
Weather Cloud Vis
km
Sea
Height
m
Swell
Dir
 
Speed
knots
Gust
knots
hPa Trend Height
m
Period
s
Dir
19/11:55pm 14.9 WSW 15 28 1016.2 - 5.8 - - 10 - - - -
19/11:30pm 15.0 WSW 13 18 1016.3 - 5.8 - - 10 - - - -
19/11:00pm 15.1 WSW 14 18 1016.1 - 5.8 - - 10 - - - -
19/10:30pm 15.7 WSW 14 19 1016.0 - 5.8 - - 10 - - - -
19/10:00pm 15.2 WSW 13 18 1016.0 - 5.8 - - 10 - - - -
19/09:30pm 14.9 W 13 16 1016.1 - 5.8 - - 10 - - - -
19/09:00pm 15.1 WSW 10 13 1016.1 R 5.8 Distant precip. Partly cloudy 25 - - - -
19/08:30pm 13.5 WSW 11 16 1016.2 - 5.8 - Mostly clear 10 - - - -
19/08:00pm 12.6 N 5 7 1016.1 - 5.8 - Partly cloudy 10 - - - -
19/07:30pm 12.9 NW 6 7 1016.1 - 5.8 - Mostly clear 10 - - - -
19/07:13pm 13.2 W 6 9 1015.9 - 5.8 Showers Mostly clear 4 - - - -
19/07:00pm 13.1 WSW 17 28 1015.9 - 5.4 Showers Partly cloudy 1 - - - -
19/06:56pm 13.3 W 17 28 1015.8 - 5.0 Showers Mostly clear 2 - - - -
19/06:52pm 13.9 W 15 25 1015.9 - 3.6 Showers Mostly clear 3 - - - -
19/06:50pm 14.0 W 13 21 1015.9 - 3.6 Showers Mostly clear 7 - - - -
19/06:30pm 13.6 NNE 9 12 1015.1 - 3.6 Showers Mostly clear 10 - - - -
19/06:00pm 13.2 CALM 0 5 1015.1 R 3.6 Showers Mostly cloudy 15 - - - -
19/05:30pm 13.3 NNW 6 9 1014.8 - 3.6 Showers Mostly clear 6 - - - -

Other Formats:

Comma delimited format used in spreadsheet applications
http://www.bom.gov.au/fwo/IDW60701/IDW60701.94403.axf

JavaScript Object Notation format (JSON) in row-major order
http://www.bom.gov.au/fwo/IDW60701/IDW60701.94403.json